• Join FlightAware (Why Join?)
  • Login
  • US Flag 
Trick or treat! (Boo!!) 
02:00PM EDT


 

Airport Tracker/Info


-or-


 

Live Flight TrackerFlight Track Log ✈ SKW5631 ✈ 06-May-2014 ✈ KSFO - KBUR

Flight Track Log - Related Links

Times and Time Zones

All times are in EDT time to prevent confusion due to time zone crossing. See the SKW5631 flight status page for this flight to view local times or setup timezone preferences in your user account.

Time Position Orientation Groundspeed Altitude Reporting Facility
EDT Latitude Longitude Course Direction KTS MPH feet Rate Location/Type
09:31PM 37.6292 -122.3914 133° Southeast 143 165 33,000  Level Oakland Center
09:32PM 37.6517 -122.4444 298° West 199 229 3,700 -13,080 Descending Oakland Center
09:33PM 37.6675 -122.5267 284° West 244 281 6,900 3,060 Climbing Oakland Center
09:34PM 37.3283 -122.2005 136° Southeast  Level FlightAware Approximate
09:34PM 37.6036 -122.5689 208° Southwest 295 339 9,900  Level Oakland Center
09:35PM 37.2362 -122.0661 135° Southeast  Level FlightAware Approximate
09:35PM 37.5181 -122.4831 141° Southeast 335 386 12,600  Level Oakland Center
09:36PM 37.1373 -121.9386 133° Southeast  Level FlightAware Approximate
09:36PM 37.4408 -122.3981 139° Southeast 369 425 14,800  Level Oakland Center
09:37PM 37.3603 -122.3078 138° Southeast 386 444 16,600 1,740 Climbing Oakland Center
09:38PM 37.2742 -122.2131 139° Southeast 408 470 18,400 1,740 Climbing Oakland Center
09:39PM 37.1872 -122.1164 138° Southeast 415 478 20,200 1,500 Climbing Oakland Center
09:40PM 37.0969 -122.0158 138° Southeast 433 498 21,500 1,200 Climbing Oakland Center
09:41PM 37.0044 -121.9100 138° Southeast 447 514 22,700 1,260 Climbing Oakland Center
09:42PM 36.9264 -121.7869 128° Southeast 453 521 24,100 1,260 Climbing Oakland Center
09:43PM 36.8461 -121.6686 130° Southeast 451 519 25,400 1,260 Climbing Oakland Center
09:44PM 36.7553 -121.5264 129° Southeast 454 522 26,700 1,080 Climbing Oakland Center
09:45PM 36.6725 -121.4022 130° Southeast 462 532 27,700 960 Climbing Oakland Center
09:46PM 36.5917 -121.2764 129° Southeast 465 535 28,700 960 Climbing Oakland Center
09:47PM 36.4889 -121.1706 140° Southeast 487 560 29,700 960 Climbing Oakland Center
09:48PM 36.3819 -121.0686 142° Southeast 486 559 30,700 600 Climbing Oakland Center
09:49PM 36.2758 -120.9678 143° Southeast 483 556 31,000 120 Climbing Oakland Center
09:50PM 36.1653 -120.8631 143° Southeast 495 570 31,000  Level Oakland Center
09:51PM 36.0564 -120.7600 143° Southeast 496 571 31,000  Level Oakland Center
09:52PM 35.9489 -120.6561 142° Southeast 495 570 31,000  Level Oakland Center
09:53PM 35.8417 -120.5564 143° Southeast 486 559 31,000  Level Oakland Center
09:54PM 35.7150 -120.4381 143° Southeast 480 552 31,000  Level Oakland Center
09:55PM 35.6086 -120.3403 143° Southeast 477 549 31,000 -60 Level Oakland Center
09:56PM 35.5206 -120.2614 144° Southeast 474 545 30,900 -360 Descending Los Angeles Center
09:57PM 35.4156 -120.1633 143° Southeast 474 545 30,400 -1,080 Descending Los Angeles Center
09:58PM 35.3025 -120.0578 143° Southeast 490 564 28,700 -1,800 Descending Los Angeles Center
09:59PM 35.1692 -119.9361 143° Southeast 494 568 26,700 -1,680 Descending Los Angeles Center
10:00PM 35.0661 -119.8294 140° Southeast 487 560 25,300 -1,380 Descending Los Angeles Center
10:01PM 34.9825 -119.7150 132° Southeast 455 524 23,900 -1,620 Descending Los Angeles Center
10:02PM 34.9078 -119.6142 132° Southeast 406 467 22,100 -1,740 Descending Los Angeles Center
10:03PM 34.8339 -119.5175 133° Southeast 393 452 20,400 -1,800 Descending Los Angeles Center
10:04PM 34.7622 -119.4225 133° Southeast 385 443 18,500 -1,860 Descending Los Angeles Center
10:06PM 34.6928 -119.3272 132° Southeast 381 438 16,700 -1,800 Descending Los Angeles Center
10:07PM 34.6236 -119.2358 133° Southeast 375 432 14,900 -1,740 Descending Los Angeles Center
10:08PM 34.5669 -119.1303 123° Southeast 361 415 13,200 -1,800 Descending Los Angeles Center
10:09PM 34.5083 -119.0142 121° Southeast 362 417 11,300 -1,620 Descending Los Angeles Center
10:10PM 34.4247 -118.9506 148° Southeast 321 369 10,000 -1,620 Descending Los Angeles Center
10:11PM 34.3608 -118.8850 140° Southeast 298 343 8,100 -1,860 Descending Los Angeles Center
10:12PM 34.3047 -118.8150 134° Southeast 293 337 6,200 -1,500 Descending Los Angeles Center
10:13PM 34.2550 -118.7478 132° Southeast 267 307 5,100 -600 Descending Los Angeles Center
10:14PM 34.2025 -118.6778 132° Southeast 274 315 5,000 -120 Descending Los Angeles Center
10:15PM 34.1564 -118.6064 128° Southeast 274 315 4,900 -540 Descending Los Angeles Center
10:16PM 34.1467 -118.5283 99° East 252 290 4,000 -960 Descending Los Angeles Center
10:17PM 34.1425 -118.4497 94° East 238 274 3,000 -900 Descending Los Angeles Center
10:18PM 34.1492 -118.3778 84° East 197 227 2,200 -960 Descending Los Angeles Center
10:19PM 34.1667 -118.3500 53° Northeast 147 169 1,300 -1,140 Descending Southern California TRACON